createdAt,value
2018-03-11T00:00:06.045Z,9.20
2018-03-11T00:01:10.769Z,9.20
2018-03-11T00:02:06.142Z,9.20
2018-03-11T00:03:05.793Z,9.20
2018-03-11T00:04:05.647Z,9.20
2018-03-11T00:05:10.555Z,9.30
2018-03-11T00:06:05.936Z,9.30
2018-03-11T00:07:05.953Z,9.30
2018-03-11T00:08:06.071Z,9.30
2018-03-11T00:09:10.429Z,9.30
2018-03-11T00:10:08.538Z,9.30
2018-03-11T00:11:05.598Z,9.30
2018-03-11T00:12:09.106Z,9.30
2018-03-11T00:13:05.789Z,9.40
2018-03-11T00:14:05.621Z,9.40
2018-03-11T00:15:05.262Z,9.40
2018-03-11T00:16:05.736Z,9.40
2018-03-11T00:17:09.884Z,9.40
2018-03-11T00:18:05.768Z,9.40
2018-03-11T00:19:05.515Z,9.40
2018-03-11T00:20:05.208Z,9.40
2018-03-11T00:21:05.291Z,9.40
2018-03-11T00:22:05.256Z,9.40
2018-03-11T00:23:10.395Z,9.40
2018-03-11T00:24:06.128Z,9.40
2018-03-11T00:25:05.973Z,9.50
2018-03-11T00:26:09.331Z,9.50
2018-03-11T00:27:05.810Z,9.40
2018-03-11T00:28:10.969Z,9.50
2018-03-11T00:29:05.558Z,9.50
2018-03-11T00:30:10.646Z,9.50
2018-03-11T00:31:05.151Z,9.50
2018-03-11T00:32:06.138Z,9.50
2018-03-11T00:33:06.125Z,9.50
2018-03-11T00:34:11.082Z,9.60
2018-03-11T00:35:09.619Z,9.60
2018-03-11T00:36:05.104Z,9.60
2018-03-11T00:37:06.028Z,9.60
2018-03-11T00:38:06.017Z,9.60
2018-03-11T00:39:06.208Z,9.60
2018-03-11T00:40:10.373Z,9.60
2018-03-11T00:41:05.756Z,9.60
2018-03-11T00:42:11.127Z,9.60
2018-03-11T00:43:05.460Z,9.60
2018-03-11T00:44:05.224Z,9.60
2018-03-11T00:45:11.199Z,9.60
2018-03-11T00:46:08.228Z,9.60
2018-03-11T00:47:05.695Z,9.60
2018-03-11T00:48:09.244Z,9.60
2018-03-11T00:49:05.850Z,9.60
2018-03-11T00:50:07.955Z,9.60
2018-03-11T00:51:08.819Z,9.60
2018-03-11T00:52:10.343Z,9.60
2018-03-11T00:53:05.697Z,9.60
2018-03-11T00:54:05.787Z,9.60
2018-03-11T00:55:08.230Z,9.50
2018-03-11T00:56:05.733Z,9.50
2018-03-11T00:57:08.954Z,9.50
2018-03-11T00:58:06.628Z,9.50
2018-03-11T00:59:06.040Z,9.50
2018-03-11T01:00:05.953Z,9.50
2018-03-11T01:01:08.092Z,9.50
2018-03-11T01:02:08.018Z,9.50
2018-03-11T01:03:05.601Z,9.50
2018-03-11T01:04:05.513Z,9.50
2018-03-11T01:05:05.583Z,9.50
2018-03-11T01:06:05.588Z,9.50
2018-03-11T01:07:05.379Z,9.50
2018-03-11T01:08:11.328Z,9.50
2018-03-11T01:09:05.796Z,9.50
2018-03-11T01:10:05.682Z,9.50
2018-03-11T01:11:05.861Z,9.50
2018-03-11T01:12:07.968Z,9.50
2018-03-11T01:13:10.529Z,9.50
2018-03-11T01:14:10.887Z,9.50
2018-03-11T01:15:10.382Z,9.50
2018-03-11T01:16:05.768Z,9.50
2018-03-11T01:17:05.513Z,9.60
2018-03-11T01:18:05.720Z,9.50
2018-03-11T01:19:05.492Z,9.50
2018-03-11T01:20:05.905Z,9.50
2018-03-11T01:21:05.851Z,9.50
2018-03-11T01:22:12.947Z,9.50
2018-03-11T01:23:05.457Z,9.50
2018-03-11T01:24:09.060Z,9.50
2018-03-11T01:25:08.051Z,9.60
2018-03-11T01:26:05.564Z,9.50
2018-03-11T01:27:05.496Z,9.60
2018-03-11T01:28:10.237Z,9.50
2018-03-11T01:29:09.503Z,9.60
2018-03-11T01:30:05.340Z,9.50
2018-03-11T01:31:11.147Z,9.50
2018-03-11T01:32:10.688Z,9.50
2018-03-11T01:33:05.104Z,9.50
2018-03-11T01:34:10.310Z,9.50
2018-03-11T01:35:05.247Z,9.50
2018-03-11T01:36:06.188Z,9.60
2018-03-11T01:37:05.746Z,9.50
2018-03-11T01:38:06.151Z,9.50
2018-03-11T01:39:05.878Z,9.50
2018-03-11T01:40:05.747Z,9.50
2018-03-11T01:41:10.679Z,9.50
2018-03-11T01:42:08.684Z,9.50
2018-03-11T01:43:08.447Z,9.50
2018-03-11T01:44:06.100Z,9.50
2018-03-11T01:45:09.655Z,9.50
2018-03-11T01:46:08.558Z,9.50
2018-03-11T01:47:06.092Z,9.50
2018-03-11T01:48:08.552Z,9.50
2018-03-11T01:49:06.169Z,9.50
2018-03-11T01:50:10.725Z,9.50
2018-03-11T01:51:06.118Z,9.50
2018-03-11T01:52:10.935Z,9.50
2018-03-11T01:53:10.379Z,9.50
2018-03-11T01:54:08.357Z,9.50
2018-03-11T01:55:10.347Z,9.50
2018-03-11T01:56:05.829Z,9.50
2018-03-11T01:57:05.614Z,9.50
2018-03-11T01:58:05.305Z,9.50
2018-03-11T01:59:06.090Z,9.50
2018-03-11T02:00:08.570Z,9.50
2018-03-11T02:01:06.234Z,9.50
2018-03-11T02:02:06.045Z,9.50
2018-03-11T02:03:10.573Z,9.50
2018-03-11T02:04:08.554Z,9.50
2018-03-11T02:05:06.144Z,9.50
2018-03-11T02:06:09.560Z,9.50
2018-03-11T02:07:16.773Z,9.50
2018-03-11T02:08:08.584Z,9.50
2018-03-11T02:09:06.099Z,9.40
2018-03-11T02:10:06.072Z,9.50
2018-03-11T02:11:10.760Z,9.40
2018-03-11T02:12:10.605Z,9.40
2018-03-11T02:13:09.105Z,9.40
2018-03-11T02:14:06.747Z,9.40
2018-03-11T02:15:05.196Z,9.40
2018-03-11T02:16:06.072Z,9.40
2018-03-11T02:17:05.596Z,9.50
2018-03-11T02:18:05.392Z,9.50
2018-03-11T02:19:10.413Z,9.50
2018-03-11T02:20:05.537Z,9.50
2018-03-11T02:21:05.658Z,9.50
2018-03-11T02:22:05.391Z,9.40
2018-03-11T02:23:05.441Z,9.50
2018-03-11T02:24:05.277Z,9.50
2018-03-11T02:25:13.751Z,9.50
2018-03-11T02:26:08.589Z,9.50
2018-03-11T02:27:05.776Z,9.50
2018-03-11T02:28:05.655Z,9.50
2018-03-11T02:29:05.234Z,9.50
2018-03-11T02:30:07.967Z,9.50
2018-03-11T02:31:05.372Z,9.50
2018-03-11T02:32:08.921Z,9.50
2018-03-11T02:33:08.877Z,9.50
2018-03-11T02:34:05.439Z,9.50
2018-03-11T02:35:10.434Z,9.40
2018-03-11T02:36:13.697Z,9.40
2018-03-11T02:37:05.262Z,9.40
2018-03-11T02:38:05.411Z,9.40
2018-03-11T02:39:05.524Z,9.40
2018-03-11T02:40:05.565Z,9.40
2018-03-11T02:41:05.369Z,9.40
2018-03-11T02:42:05.986Z,9.40
2018-03-11T02:43:06.141Z,9.40
2018-03-11T02:44:06.233Z,9.40
2018-03-11T02:45:11.124Z,9.30
2018-03-11T02:46:07.874Z,9.30
2018-03-11T02:47:08.738Z,9.30
2018-03-11T02:48:05.287Z,9.30
2018-03-11T02:49:11.061Z,9.20
2018-03-11T02:50:07.981Z,9.30
2018-03-11T02:51:08.363Z,9.20
2018-03-11T02:52:05.865Z,9.20
2018-03-11T02:53:05.883Z,9.20
2018-03-11T02:54:05.684Z,9.20
2018-03-11T02:55:05.438Z,9.20
2018-03-11T02:56:09.049Z,9.10
2018-03-11T02:57:08.035Z,9.10
2018-03-11T02:58:05.547Z,9.10
2018-03-11T02:59:05.452Z,9.10
2018-03-11T03:00:10.277Z,9.00
2018-03-11T03:01:05.932Z,9.10
2018-03-11T03:02:05.126Z,9.10
2018-03-11T03:03:06.212Z,9.00
2018-03-11T03:04:05.187Z,9.00
2018-03-11T03:05:09.113Z,9.00
2018-03-11T03:06:05.657Z,9.00
2018-03-11T03:07:18.370Z,9.00
2018-03-11T03:08:05.853Z,9.00
2018-03-11T03:09:08.346Z,9.00
2018-03-11T03:10:08.433Z,9.00
2018-03-11T03:11:10.986Z,9.00
2018-03-11T03:12:10.398Z,9.00
2018-03-11T03:13:15.996Z,9.00
2018-03-11T03:14:05.550Z,9.00
2018-03-11T03:15:05.450Z,9.00
2018-03-11T03:16:10.680Z,9.00
2018-03-11T03:17:10.304Z,9.00
2018-03-11T03:18:05.909Z,9.00
2018-03-11T03:19:05.917Z,9.00
2018-03-11T03:20:07.819Z,9.00
2018-03-11T03:21:05.305Z,9.00
2018-03-11T03:22:05.234Z,9.00
2018-03-11T03:23:05.146Z,9.00
2018-03-11T03:24:05.854Z,9.00
2018-03-11T03:25:05.699Z,9.00
2018-03-11T03:26:09.426Z,9.00
2018-03-11T03:27:10.433Z,9.00
2018-03-11T03:28:11.071Z,9.00
2018-03-11T03:29:05.632Z,9.00
2018-03-11T03:30:08.171Z,9.00
2018-03-11T03:31:05.775Z,9.00
2018-03-11T03:32:05.891Z,9.00
2018-03-11T03:33:05.281Z,9.00
2018-03-11T03:34:08.634Z,9.10
2018-03-11T03:35:06.060Z,9.00
2018-03-11T03:36:11.165Z,9.10
2018-03-11T03:37:05.588Z,9.10
2018-03-11T03:38:10.555Z,9.10
2018-03-11T03:39:05.789Z,9.10
2018-03-11T03:40:13.177Z,9.20
2018-03-11T03:41:05.925Z,9.10
2018-03-11T03:42:08.395Z,9.20
2018-03-11T03:43:08.565Z,9.20
2018-03-11T03:44:05.389Z,9.20
2018-03-11T03:45:08.611Z,9.20
2018-03-11T03:46:08.689Z,9.30
2018-03-11T03:47:06.119Z,9.20
2018-03-11T03:48:09.696Z,9.30
2018-03-11T03:49:05.276Z,9.20
2018-03-11T03:50:12.749Z,9.20
2018-03-11T03:51:05.542Z,9.30
2018-03-11T03:52:05.237Z,9.30
2018-03-11T03:53:05.899Z,9.30
2018-03-11T03:54:07.986Z,9.30
2018-03-11T03:55:08.675Z,9.20
2018-03-11T03:56:08.748Z,9.30
2018-03-11T03:57:08.068Z,9.30
2018-03-11T03:58:08.359Z,9.30
2018-03-11T03:59:09.090Z,9.30
2018-03-11T04:00:05.677Z,9.20
2018-03-11T04:01:08.059Z,9.30
2018-03-11T04:02:05.557Z,9.30
2018-03-11T04:03:08.680Z,9.30
2018-03-11T04:04:05.522Z,9.30
2018-03-11T04:05:10.575Z,9.20
2018-03-11T04:06:06.236Z,9.20
2018-03-11T04:07:10.341Z,9.30
2018-03-11T04:08:10.829Z,9.20
2018-03-11T04:09:05.165Z,9.30
2018-03-11T04:10:08.173Z,9.20
2018-03-11T04:11:08.622Z,9.20
2018-03-11T04:12:05.190Z,9.20
2018-03-11T04:13:06.016Z,9.20
2018-03-11T04:14:05.473Z,9.20
2018-03-11T04:15:05.600Z,9.30
2018-03-11T04:16:06.163Z,9.20
2018-03-11T04:17:05.453Z,9.20
2018-03-11T04:18:10.696Z,9.20
2018-03-11T04:19:06.108Z,9.20
2018-03-11T04:20:05.948Z,9.20
2018-03-11T04:21:05.565Z,9.20
2018-03-11T04:22:08.815Z,9.20
2018-03-11T04:23:05.354Z,9.20
2018-03-11T04:24:10.855Z,9.20
2018-03-11T04:25:05.534Z,9.20
2018-03-11T04:26:05.199Z,9.20
2018-03-11T04:27:09.328Z,9.20
2018-03-11T04:28:06.159Z,9.20
2018-03-11T04:29:05.999Z,9.20
2018-03-11T04:30:07.817Z,9.20
2018-03-11T04:31:08.996Z,9.20
2018-03-11T04:32:13.494Z,9.20
2018-03-11T04:33:06.191Z,9.20
2018-03-11T04:34:06.204Z,9.20
2018-03-11T04:35:05.590Z,9.20
2018-03-11T04:36:10.609Z,9.10
2018-03-11T04:37:05.881Z,9.20
2018-03-11T04:38:10.580Z,9.20
2018-03-11T04:39:05.148Z,9.10
2018-03-11T04:40:06.088Z,9.10
2018-03-11T04:41:08.258Z,9.10
2018-03-11T04:42:08.822Z,9.10
2018-03-11T04:43:05.352Z,9.10
2018-03-11T04:44:05.558Z,9.10
2018-03-11T04:45:11.166Z,9.00
2018-03-11T04:46:08.868Z,9.00
2018-03-11T04:47:10.488Z,9.00
2018-03-11T04:48:06.149Z,9.00
2018-03-11T04:49:05.986Z,9.00
2018-03-11T04:50:08.600Z,8.90
2018-03-11T04:51:09.440Z,9.00
2018-03-11T04:52:06.059Z,8.90
2018-03-11T04:53:05.980Z,8.90
2018-03-11T04:54:08.182Z,8.90
2018-03-11T04:55:08.535Z,8.90
2018-03-11T04:56:13.628Z,8.90
2018-03-11T04:57:05.425Z,8.90
2018-03-11T04:58:05.621Z,8.90
2018-03-11T04:59:05.618Z,8.90
2018-03-11T05:00:05.355Z,8.90
2018-03-11T05:01:06.613Z,8.90
2018-03-11T05:02:05.147Z,8.90
2018-03-11T05:03:05.317Z,8.80
2018-03-11T05:04:07.803Z,8.80
2018-03-11T05:05:07.812Z,8.80
2018-03-11T05:06:10.440Z,8.70
2018-03-11T05:07:10.859Z,8.70
2018-03-11T05:08:05.588Z,8.70
2018-03-11T05:09:05.468Z,8.70
2018-03-11T05:10:06.184Z,8.60
2018-03-11T05:11:08.778Z,8.60
2018-03-11T05:12:10.448Z,8.50
2018-03-11T05:13:09.310Z,8.50
2018-03-11T05:14:12.821Z,8.50
2018-03-11T05:15:10.503Z,8.40
2018-03-11T05:16:06.133Z,8.40
2018-03-11T05:17:05.680Z,8.40
2018-03-11T05:18:05.950Z,8.40
2018-03-11T05:19:05.645Z,8.30
2018-03-11T05:20:05.325Z,8.40
2018-03-11T05:21:05.384Z,8.30
2018-03-11T05:22:10.416Z,8.30
2018-03-11T05:23:12.274Z,8.30
2018-03-11T05:24:05.731Z,8.30
2018-03-11T05:25:05.782Z,8.30
2018-03-11T05:26:10.535Z,8.30
2018-03-11T05:27:08.596Z,8.20
2018-03-11T05:28:06.033Z,8.20
2018-03-11T05:29:05.803Z,8.20
2018-03-11T05:30:10.836Z,8.20
2018-03-11T05:31:08.091Z,8.20
2018-03-11T05:32:17.413Z,8.20
2018-03-11T05:33:05.981Z,8.20
2018-03-11T05:34:15.984Z,8.10
2018-03-11T05:35:05.517Z,8.10
2018-03-11T05:36:10.996Z,8.10
2018-03-11T05:37:05.537Z,8.10
2018-03-11T05:38:13.229Z,8.10
2018-03-11T05:39:11.628Z,8.10
2018-03-11T05:40:08.666Z,8.10
2018-03-11T05:41:06.101Z,8.00
2018-03-11T05:42:16.055Z,8.00
2018-03-11T05:43:05.680Z,8.00
2018-03-11T05:44:08.382Z,7.90
2018-03-11T05:45:05.953Z,7.90
2018-03-11T05:46:08.366Z,7.90
2018-03-11T05:47:06.063Z,7.90
2018-03-11T05:48:09.091Z,7.90
2018-03-11T05:49:05.601Z,7.80
2018-03-11T05:50:10.350Z,7.80
2018-03-11T05:51:05.966Z,7.80
2018-03-11T05:52:08.385Z,7.80
2018-03-11T05:53:08.472Z,7.80
2018-03-11T05:54:10.877Z,7.80
2018-03-11T05:55:11.066Z,7.80
2018-03-11T05:56:05.577Z,7.80
2018-03-11T05:57:06.369Z,7.80
2018-03-11T05:58:05.571Z,7.80
2018-03-11T05:59:05.475Z,7.80
2018-03-11T06:00:10.893Z,7.80
2018-03-11T06:01:10.472Z,7.80
2018-03-11T06:02:11.058Z,7.80
2018-03-11T06:03:10.747Z,7.80
2018-03-11T06:04:05.952Z,7.80
2018-03-11T06:05:10.499Z,7.80
2018-03-11T06:06:09.361Z,7.90
2018-03-11T06:07:08.667Z,7.80
2018-03-11T06:08:05.501Z,7.90
2018-03-11T06:09:11.819Z,7.90
2018-03-11T06:10:05.326Z,8.00
2018-03-11T06:11:05.431Z,8.00
2018-03-11T06:12:10.275Z,8.10
2018-03-11T06:13:05.782Z,8.10
2018-03-11T06:14:08.056Z,8.10
2018-03-11T06:15:08.921Z,8.20
2018-03-11T06:16:10.509Z,8.10
2018-03-11T06:17:06.758Z,8.20
2018-03-11T06:18:06.084Z,8.20
2018-03-11T06:19:05.798Z,8.20
2018-03-11T06:20:05.863Z,8.20
2018-03-11T06:21:05.529Z,8.20
2018-03-11T06:22:06.193Z,8.30
2018-03-11T06:23:05.293Z,8.30
2018-03-11T06:24:05.697Z,8.40
2018-03-11T06:25:05.335Z,8.40
2018-03-11T06:26:08.759Z,8.70
2018-03-11T06:27:05.180Z,8.60
2018-03-11T06:28:10.849Z,8.90
2018-03-11T06:29:05.604Z,8.90
2018-03-11T06:30:05.278Z,9.00
2018-03-11T06:31:05.470Z,9.10
2018-03-11T06:32:07.068Z,9.30
2018-03-11T06:33:08.127Z,9.60
2018-03-11T06:34:08.167Z,9.70
2018-03-11T06:35:05.934Z,9.60
2018-03-11T06:36:05.778Z,9.80
2018-03-11T06:37:10.175Z,10.00
2018-03-11T06:38:05.557Z,10.00
2018-03-11T06:39:05.749Z,10.10
2018-03-11T06:40:05.768Z,10.20
2018-03-11T06:41:06.065Z,10.30
2018-03-11T06:42:07.160Z,10.40
2018-03-11T06:43:05.840Z,10.50
2018-03-11T06:44:05.660Z,10.60
2018-03-11T06:45:10.878Z,10.60
2018-03-11T06:46:05.258Z,10.60
2018-03-11T06:47:08.662Z,10.60
2018-03-11T06:48:06.077Z,10.60
2018-03-11T06:49:10.445Z,10.60
2018-03-11T06:50:10.975Z,10.70
2018-03-11T06:51:05.631Z,10.70
2018-03-11T06:52:10.069Z,10.80
2018-03-11T06:53:06.272Z,10.80
2018-03-11T06:54:05.406Z,10.80
2018-03-11T06:55:06.031Z,10.90
2018-03-11T06:56:08.991Z,11.00
2018-03-11T06:57:05.617Z,11.00
2018-03-11T06:58:05.630Z,11.10
2018-03-11T06:59:07.962Z,11.30
2018-03-11T07:00:08.049Z,11.40
2018-03-11T07:01:05.975Z,11.30
2018-03-11T07:02:10.994Z,11.40
2018-03-11T07:03:05.352Z,11.50
2018-03-11T07:04:06.430Z,11.60
2018-03-11T07:05:09.030Z,11.80
2018-03-11T07:06:11.625Z,11.80
2018-03-11T07:07:08.720Z,12.00
2018-03-11T07:08:05.174Z,12.00
2018-03-11T07:09:14.872Z,12.20
2018-03-11T07:10:05.626Z,12.10
2018-03-11T07:11:08.240Z,12.30
2018-03-11T07:12:05.873Z,12.30
2018-03-11T07:13:06.744Z,12.30
2018-03-11T07:14:11.187Z,12.50
2018-03-11T07:15:11.006Z,12.50
2018-03-11T07:16:05.654Z,12.60
2018-03-11T07:17:07.876Z,12.70
2018-03-11T07:18:05.526Z,12.70
2018-03-11T07:19:09.265Z,12.80
2018-03-11T07:20:06.136Z,12.80
2018-03-11T07:21:10.848Z,12.90
2018-03-11T07:22:05.440Z,12.90
2018-03-11T07:23:13.029Z,12.90
2018-03-11T07:24:08.298Z,13.00
2018-03-11T07:25:08.725Z,13.00
2018-03-11T07:26:06.057Z,13.00
2018-03-11T07:27:06.210Z,13.00
2018-03-11T07:28:10.209Z,13.00
2018-03-11T07:29:08.263Z,13.00
2018-03-11T07:30:07.897Z,13.00
2018-03-11T07:31:05.570Z,13.00
2018-03-11T07:32:13.001Z,13.10
2018-03-11T07:33:10.485Z,13.10
2018-03-11T07:34:08.494Z,13.00
2018-03-11T07:35:10.274Z,13.00
2018-03-11T07:36:05.589Z,13.00
2018-03-11T07:37:09.082Z,13.00
2018-03-11T07:38:11.339Z,13.00
2018-03-11T07:39:06.123Z,13.10
2018-03-11T07:40:06.203Z,13.10
2018-03-11T07:41:06.084Z,13.00
2018-03-11T07:42:09.057Z,13.00
2018-03-11T07:43:07.749Z,13.00
2018-03-11T07:44:13.073Z,13.10
2018-03-11T07:45:05.879Z,13.00
2018-03-11T07:46:05.723Z,13.10
2018-03-11T07:47:06.846Z,13.10
2018-03-11T07:48:08.001Z,13.10
2018-03-11T07:49:08.325Z,13.20
2018-03-11T07:50:05.363Z,13.10
2018-03-11T07:51:06.136Z,13.20
2018-03-11T07:52:05.762Z,13.20
2018-03-11T07:53:05.681Z,13.10
2018-03-11T07:54:05.832Z,13.20
2018-03-11T07:55:06.465Z,13.20
2018-03-11T07:56:08.771Z,13.20
2018-03-11T07:57:05.320Z,13.10
2018-03-11T07:58:08.308Z,13.20
2018-03-11T07:59:13.575Z,13.30
2018-03-11T08:00:05.858Z,13.20
2018-03-11T08:01:05.501Z,13.20
2018-03-11T08:02:11.363Z,13.30
2018-03-11T08:03:11.399Z,13.30
2018-03-11T08:04:06.197Z,13.30
2018-03-11T08:05:08.478Z,13.30
2018-03-11T08:06:11.128Z,13.30
2018-03-11T08:07:05.672Z,13.30
2018-03-11T08:08:08.709Z,13.30
2018-03-11T08:09:06.181Z,13.30
2018-03-11T08:10:10.255Z,13.30
2018-03-11T08:11:05.856Z,13.30
2018-03-11T08:12:05.641Z,13.30
2018-03-11T08:13:05.977Z,13.30
2018-03-11T08:14:05.250Z,13.30
2018-03-11T08:15:06.111Z,13.30
2018-03-11T08:16:06.081Z,13.30
2018-03-11T08:17:08.147Z,13.30
2018-03-11T08:18:05.596Z,13.30
2018-03-11T08:19:10.378Z,13.30
2018-03-11T08:20:05.800Z,13.30
2018-03-11T08:21:05.911Z,13.30
2018-03-11T08:22:05.512Z,13.40
2018-03-11T08:23:07.886Z,13.40
2018-03-11T08:24:09.709Z,13.50
2018-03-11T08:25:08.319Z,13.50
2018-03-11T08:26:05.939Z,13.50
2018-03-11T08:27:05.961Z,13.50
2018-03-11T08:28:05.936Z,13.50
2018-03-11T08:29:10.727Z,13.40
2018-03-11T08:30:05.300Z,13.40
2018-03-11T08:31:08.296Z,13.40
2018-03-11T08:32:10.847Z,13.30
2018-03-11T08:33:06.031Z,13.40
2018-03-11T08:34:08.902Z,13.20
2018-03-11T08:35:05.419Z,13.20
2018-03-11T08:36:05.984Z,13.20
2018-03-11T08:37:05.462Z,13.20
2018-03-11T08:38:05.619Z,13.20
2018-03-11T08:39:05.643Z,13.10
2018-03-11T08:40:08.072Z,13.10
2018-03-11T08:41:06.026Z,13.10
2018-03-11T08:42:08.974Z,13.10
2018-03-11T08:43:05.548Z,13.10
2018-03-11T08:44:05.348Z,13.20
2018-03-11T08:45:05.557Z,13.20
2018-03-11T08:46:09.074Z,13.20
2018-03-11T08:47:05.830Z,13.20
2018-03-11T08:48:05.499Z,13.20
2018-03-11T08:49:05.475Z,13.20
2018-03-11T08:50:10.386Z,13.20
2018-03-11T08:51:07.812Z,13.20
2018-03-11T08:52:05.208Z,13.30
2018-03-11T08:53:11.300Z,13.30
2018-03-11T08:54:12.893Z,13.30
2018-03-11T08:55:09.975Z,13.30
2018-03-11T08:56:07.253Z,13.30
2018-03-11T08:57:06.029Z,13.30
2018-03-11T08:58:09.048Z,13.30
2018-03-11T08:59:05.883Z,13.30
2018-03-11T09:00:05.747Z,13.40
2018-03-11T09:01:05.345Z,13.40
2018-03-11T09:02:08.661Z,13.50
2018-03-11T09:03:05.296Z,13.50
2018-03-11T09:04:10.727Z,13.50
2018-03-11T09:05:06.092Z,13.60
2018-03-11T09:06:10.790Z,13.60
2018-03-11T09:07:05.556Z,13.60
2018-03-11T09:08:05.671Z,13.70
2018-03-11T09:09:10.780Z,13.70
2018-03-11T09:10:11.329Z,13.80
2018-03-11T09:11:09.245Z,13.80
2018-03-11T09:12:05.874Z,13.80
2018-03-11T09:13:05.957Z,13.90
2018-03-11T09:14:06.180Z,13.90
2018-03-11T09:15:05.612Z,13.90
2018-03-11T09:16:06.369Z,13.90
2018-03-11T09:17:05.509Z,13.90
2018-03-11T09:18:05.865Z,14.00
2018-03-11T09:19:09.355Z,14.00
2018-03-11T09:20:05.853Z,14.00
2018-03-11T09:21:05.557Z,14.00
2018-03-11T09:22:08.889Z,14.10
2018-03-11T09:23:05.710Z,14.10
2018-03-11T09:24:05.720Z,14.10
2018-03-11T09:25:06.258Z,14.10
2018-03-11T09:26:05.992Z,14.10
2018-03-11T09:27:05.950Z,14.10
2018-03-11T09:28:13.545Z,14.10
2018-03-11T09:29:11.174Z,14.10
2018-03-11T09:30:05.769Z,14.10
2018-03-11T09:31:10.526Z,14.10
2018-03-11T09:32:08.013Z,14.10
2018-03-11T09:33:08.823Z,14.10
2018-03-11T09:34:05.354Z,14.10
2018-03-11T09:35:07.655Z,14.10
2018-03-11T09:36:06.763Z,14.10
2018-03-11T09:37:05.627Z,14.10
2018-03-11T09:38:05.590Z,14.20
2018-03-11T09:39:06.088Z,14.20
2018-03-11T09:40:10.859Z,14.10
2018-03-11T09:41:05.526Z,14.20
2018-03-11T09:42:08.235Z,14.10
2018-03-11T09:43:05.421Z,14.10
2018-03-11T09:44:08.636Z,14.20
2018-03-11T09:45:09.561Z,14.20
2018-03-11T09:46:06.088Z,14.20
2018-03-11T09:47:05.902Z,14.30
2018-03-11T09:48:06.121Z,14.30
2018-03-11T09:49:10.553Z,14.40
2018-03-11T09:50:08.295Z,14.40
2018-03-11T09:51:05.735Z,14.40
2018-03-11T09:52:05.621Z,14.50
2018-03-11T09:53:10.778Z,14.50
2018-03-11T09:54:05.201Z,14.60
2018-03-11T09:55:08.635Z,14.70
2018-03-11T09:56:08.733Z,14.70
2018-03-11T09:57:05.449Z,14.70
2018-03-11T09:58:08.575Z,14.80
2018-03-11T09:59:06.060Z,14.80
2018-03-11T10:00:05.982Z,14.90
2018-03-11T10:01:08.172Z,15.00
2018-03-11T10:02:10.454Z,15.00
2018-03-11T10:03:10.203Z,15.00
2018-03-11T10:04:05.993Z,15.10
2018-03-11T10:05:11.147Z,15.10
2018-03-11T10:06:05.363Z,15.10
2018-03-11T10:07:10.869Z,15.10
2018-03-11T10:08:05.413Z,15.20
2018-03-11T10:09:09.386Z,15.30
2018-03-11T10:10:05.902Z,15.30
2018-03-11T10:11:07.779Z,15.40
2018-03-11T10:12:06.179Z,15.40
2018-03-11T10:13:06.006Z,15.40
2018-03-11T10:14:10.910Z,15.60
2018-03-11T10:15:05.531Z,15.60
2018-03-11T10:16:05.418Z,15.70
2018-03-11T10:17:05.913Z,15.70
2018-03-11T10:18:05.674Z,15.80
2018-03-11T10:19:06.183Z,15.80
2018-03-11T10:20:05.783Z,15.90
2018-03-11T10:21:10.731Z,15.90
2018-03-11T10:22:08.797Z,15.90
2018-03-11T10:23:09.588Z,15.90
2018-03-11T10:24:10.437Z,15.90
2018-03-11T10:25:05.900Z,15.90
2018-03-11T10:26:06.003Z,15.90
2018-03-11T10:27:05.736Z,15.90
2018-03-11T10:28:08.652Z,15.90
2018-03-11T10:29:10.386Z,15.90
2018-03-11T10:30:08.417Z,15.90
2018-03-11T10:31:05.957Z,15.90
2018-03-11T10:32:10.665Z,16.00
2018-03-11T10:33:05.799Z,16.00
2018-03-11T10:34:07.888Z,16.10
2018-03-11T10:35:05.571Z,16.00
2018-03-11T10:36:08.264Z,16.10
2018-03-11T10:37:05.753Z,16.10
2018-03-11T10:38:10.530Z,16.10
2018-03-11T10:39:06.051Z,16.20
2018-03-11T10:40:11.037Z,16.30
2018-03-11T10:41:05.482Z,16.30
2018-03-11T10:42:10.184Z,16.30
2018-03-11T10:43:05.558Z,16.40
2018-03-11T10:44:10.487Z,16.50
2018-03-11T10:45:05.980Z,16.40
2018-03-11T10:46:05.876Z,16.50
2018-03-11T10:47:08.550Z,16.70
2018-03-11T10:48:06.108Z,16.60
2018-03-11T10:49:10.997Z,16.70
2018-03-11T10:50:08.024Z,16.80
2018-03-11T10:51:05.615Z,16.80
2018-03-11T10:52:09.102Z,16.80
2018-03-11T10:53:11.841Z,16.80
2018-03-11T10:54:05.273Z,16.80
2018-03-11T10:55:10.881Z,16.90
2018-03-11T10:56:13.002Z,16.90
2018-03-11T10:57:08.726Z,17.00
2018-03-11T10:58:07.720Z,17.00
2018-03-11T10:59:05.850Z,17.00
2018-03-11T11:00:10.751Z,17.10
2018-03-11T11:01:05.224Z,17.10
2018-03-11T11:02:08.261Z,17.20
2018-03-11T11:03:05.366Z,17.20
2018-03-11T11:04:10.477Z,17.20
2018-03-11T11:05:05.175Z,17.20
2018-03-11T11:06:08.320Z,17.30
2018-03-11T11:07:05.990Z,17.30
2018-03-11T11:08:08.657Z,17.40
2018-03-11T11:09:06.068Z,17.40
2018-03-11T11:10:05.961Z,17.40
2018-03-11T11:11:05.710Z,17.40
2018-03-11T11:12:05.513Z,17.40
2018-03-11T11:13:09.217Z,17.50
2018-03-11T11:14:06.096Z,17.50
2018-03-11T11:15:06.096Z,17.50
2018-03-11T11:16:06.337Z,17.50
2018-03-11T11:17:10.868Z,17.60
2018-03-11T11:18:05.219Z,17.60
2018-03-11T11:19:08.537Z,17.60
2018-03-11T11:20:08.390Z,17.70
2018-03-11T11:21:05.887Z,17.70
2018-03-11T11:22:05.663Z,17.70
2018-03-11T11:23:08.606Z,17.70
2018-03-11T11:24:06.087Z,17.70
2018-03-11T11:25:05.904Z,17.80
2018-03-11T11:26:05.147Z,17.80
2018-03-11T11:27:13.434Z,17.90
2018-03-11T11:28:06.957Z,17.90
2018-03-11T11:29:08.199Z,18.00
2018-03-11T11:30:05.615Z,18.00
2018-03-11T11:31:05.182Z,18.00
2018-03-11T11:32:05.827Z,18.10
2018-03-11T11:33:05.422Z,18.10
2018-03-11T11:34:09.498Z,18.00
2018-03-11T11:35:09.826Z,18.10
2018-03-11T11:36:05.373Z,18.00
2018-03-11T11:37:10.518Z,18.10
2018-03-11T11:38:11.198Z,18.00
2018-03-11T11:39:05.767Z,18.00
2018-03-11T11:40:15.413Z,18.00
2018-03-11T11:41:09.419Z,17.90
2018-03-11T11:42:11.255Z,18.00
2018-03-11T11:43:05.743Z,18.00
2018-03-11T11:44:08.447Z,18.00
2018-03-11T11:45:06.130Z,18.00
2018-03-11T11:46:10.882Z,18.00
2018-03-11T11:47:11.017Z,18.10
2018-03-11T11:48:05.839Z,18.10
2018-03-11T11:49:05.440Z,18.10
2018-03-11T11:50:07.898Z,18.20
2018-03-11T11:51:10.356Z,18.20
2018-03-11T11:52:05.932Z,18.20
2018-03-11T11:53:05.886Z,18.30
2018-03-11T11:54:05.253Z,18.30
2018-03-11T11:55:09.391Z,18.40
2018-03-11T11:56:10.938Z,18.40
2018-03-11T11:57:05.663Z,18.40
2018-03-11T11:58:05.379Z,18.50
2018-03-11T11:59:06.103Z,18.50
2018-03-11T12:00:05.986Z,18.50
2018-03-11T12:01:08.506Z,18.60
2018-03-11T12:02:05.408Z,18.60
2018-03-11T12:03:05.554Z,18.60
2018-03-11T12:04:11.123Z,18.60
2018-03-11T12:05:05.838Z,18.60
2018-03-11T12:06:05.197Z,18.60
2018-03-11T12:07:06.092Z,18.50
2018-03-11T12:08:10.729Z,18.50
2018-03-11T12:09:05.921Z,18.50
2018-03-11T12:10:05.647Z,18.50
2018-03-11T12:11:10.766Z,18.50
2018-03-11T12:12:07.952Z,18.50
2018-03-11T12:13:05.531Z,18.50
2018-03-11T12:14:05.553Z,18.50
2018-03-11T12:15:08.845Z,18.60
2018-03-11T12:16:05.905Z,18.60
2018-03-11T12:17:09.281Z,18.60
2018-03-11T12:18:05.903Z,18.60
2018-03-11T12:19:09.265Z,18.60
2018-03-11T12:20:05.916Z,18.60
2018-03-11T12:21:08.081Z,18.60
2018-03-11T12:22:09.008Z,18.60
2018-03-11T12:23:05.515Z,18.50
2018-03-11T12:24:05.952Z,18.60
2018-03-11T12:25:05.181Z,18.60
2018-03-11T12:26:06.099Z,18.60
2018-03-11T12:27:05.973Z,18.60
2018-03-11T12:28:05.249Z,18.70
2018-03-11T12:29:10.405Z,18.60
2018-03-11T12:30:05.870Z,18.60
2018-03-11T12:31:10.700Z,18.70
2018-03-11T12:32:05.636Z,18.70
2018-03-11T12:33:11.152Z,18.60
2018-03-11T12:34:05.128Z,18.70
2018-03-11T12:35:09.162Z,18.70
2018-03-11T12:36:05.547Z,18.70
2018-03-11T12:37:06.021Z,18.70
2018-03-11T12:38:05.802Z,18.70
2018-03-11T12:39:11.085Z,18.60
2018-03-11T12:40:05.678Z,18.60
2018-03-11T12:41:05.584Z,18.60
2018-03-11T12:42:06.598Z,18.60
2018-03-11T12:43:07.718Z,18.60
2018-03-11T12:44:05.178Z,18.60
2018-03-11T12:45:05.493Z,18.60
2018-03-11T12:46:08.241Z,18.60
2018-03-11T12:47:08.322Z,18.60
2018-03-11T12:48:10.861Z,18.60
2018-03-11T12:49:06.043Z,18.60
2018-03-11T12:50:06.243Z,18.60
2018-03-11T12:51:09.030Z,18.60
2018-03-11T12:52:05.588Z,18.60
2018-03-11T12:53:05.759Z,18.60
2018-03-11T12:54:05.777Z,18.60
2018-03-11T12:55:05.550Z,18.60
2018-03-11T12:56:05.419Z,18.60
2018-03-11T12:57:10.464Z,18.60
2018-03-11T12:58:08.481Z,18.60
2018-03-11T12:59:05.728Z,18.60
2018-03-11T13:00:05.859Z,18.60
2018-03-11T13:01:08.202Z,18.60
2018-03-11T13:02:08.225Z,18.60
2018-03-11T13:03:05.755Z,18.60
2018-03-11T13:04:05.637Z,18.70
2018-03-11T13:05:06.114Z,18.60